createdAt,value
2023-02-21T00:01:05.007Z,101041.13
2023-02-21T00:03:52.503Z,101039.31
2023-02-21T00:06:38.044Z,101037.91
2023-02-21T00:09:23.167Z,101040.88
2023-02-21T00:12:08.730Z,101037.91
2023-02-21T00:14:57.103Z,101039.59
2023-02-21T00:17:43.348Z,101039.59
2023-02-21T00:20:29.274Z,101045.88
2023-02-21T00:23:14.728Z,101051.97
2023-02-21T00:26:00.043Z,101045.31
2023-02-21T00:28:45.394Z,101032.66
2023-02-21T00:31:31.017Z,101040.16
2023-02-21T00:34:16.363Z,101035.38
2023-02-21T00:37:01.750Z,101032.81
2023-02-21T00:39:47.396Z,101039.22
2023-02-21T00:42:32.907Z,101034.16
2023-02-21T00:45:18.112Z,101033.53
2023-02-21T00:48:03.280Z,101028.88
2023-02-21T00:50:48.474Z,101025.34
2023-02-21T00:53:33.746Z,101020.06
2023-02-21T00:56:19.349Z,101020.06
2023-02-21T00:59:04.608Z,101018.50
2023-02-21T01:01:49.878Z,101013.81
2023-02-21T01:04:35.664Z,101002.06
2023-02-21T01:07:20.956Z,101004.97
2023-02-21T01:10:07.021Z,100997.66
2023-02-21T01:12:52.610Z,101007.25
2023-02-21T01:15:37.871Z,100999.22
2023-02-21T01:18:23.662Z,101002.38
2023-02-21T01:21:09.122Z,100989.00
2023-02-21T01:23:54.449Z,100991.34
2023-02-21T01:26:39.808Z,100998.81
2023-02-21T01:29:25.248Z,100991.50
2023-02-21T01:32:10.486Z,100991.00
2023-02-21T01:34:55.893Z,100983.91
2023-02-21T01:37:41.109Z,100984.91
2023-02-21T01:40:27.619Z,100978.50
2023-02-21T01:43:12.988Z,100985.06
2023-02-21T01:46:10.126Z,100972.06
2023-02-21T01:48:55.945Z,100973.78
2023-02-21T01:51:52.064Z,100958.50
2023-02-21T01:54:39.954Z,100952.25
2023-02-21T01:57:27.332Z,100957.50
2023-02-21T02:00:17.120Z,100959.66
2023-02-21T02:03:23.280Z,100955.78
2023-02-21T02:06:15.532Z,100958.19
2023-02-21T02:09:01.510Z,100954.16
2023-02-21T02:12:08.806Z,100947.56
2023-02-21T02:14:56.961Z,100952.44
2023-02-21T02:17:51.466Z,100944.31
2023-02-21T02:20:43.042Z,100943.63
2023-02-21T02:23:49.869Z,100945.13
2023-02-21T02:27:12.396Z,100943.19
2023-02-21T02:30:00.526Z,100938.56
2023-02-21T02:33:01.290Z,100938.31
2023-02-21T02:35:50.453Z,100937.00
2023-02-21T02:38:47.285Z,100934.13
2023-02-21T02:41:42.314Z,100930.44
2023-02-21T02:44:21.144Z,100930.09
2023-02-21T02:46:50.187Z,100917.94
2023-02-21T02:49:25.347Z,100919.63
2023-02-21T02:51:53.141Z,100909.78
2023-02-21T02:54:20.356Z,100909.78
2023-02-21T02:56:51.134Z,100903.69
2023-02-21T02:59:26.532Z,100908.97
2023-02-21T03:02:13.954Z,100907.22
2023-02-21T03:04:59.408Z,100912.25
2023-02-21T03:07:48.909Z,100909.84
2023-02-21T03:10:54.570Z,100907.16
2023-02-21T03:13:49.799Z,100904.16
2023-02-21T03:16:55.286Z,100903.97
2023-02-21T03:19:31.724Z,100902.91
2023-02-21T03:22:22.460Z,100900.75
2023-02-21T03:24:51.523Z,100903.47
2023-02-21T03:27:21.432Z,100905.63
2023-02-21T03:29:49.225Z,100897.56
2023-02-21T03:32:28.629Z,100894.84
2023-02-21T03:34:55.680Z,100892.84
2023-02-21T03:37:45.298Z,100888.75
2023-02-21T03:40:18.435Z,100880.50
2023-02-21T03:42:45.429Z,100875.09
2023-02-21T03:45:12.478Z,100878.78
2023-02-21T03:47:39.750Z,100886.22
2023-02-21T03:50:07.638Z,100882.50
2023-02-21T03:52:34.660Z,100885.78
2023-02-21T03:55:01.621Z,100883.44
2023-02-21T03:57:28.547Z,100884.84
2023-02-21T03:59:55.738Z,100890.25
2023-02-21T04:02:23.056Z,100890.69
2023-02-21T04:04:50.239Z,100882.59
2023-02-21T04:07:19.863Z,100881.75
2023-02-21T04:09:48.849Z,100881.06
2023-02-21T04:12:16.025Z,100881.06
2023-02-21T04:14:42.895Z,100872.63
2023-02-21T04:17:09.771Z,100866.84
2023-02-21T04:19:36.782Z,100873.97
2023-02-21T04:22:03.827Z,100869.94
2023-02-21T04:24:30.705Z,100865.31
2023-02-21T04:26:58.708Z,100865.91
2023-02-21T04:29:25.730Z,100866.59
2023-02-21T04:31:52.759Z,100861.50
2023-02-21T04:34:19.832Z,100861.34
2023-02-21T04:36:46.804Z,100860.34
2023-02-21T04:39:14.194Z,100861.81
2023-02-21T04:41:41.469Z,100865.38
2023-02-21T04:44:08.369Z,100856.50
2023-02-21T04:46:35.211Z,100851.66
2023-02-21T04:49:02.478Z,100853.56
2023-02-21T04:51:29.361Z,100855.09
2023-02-21T04:53:56.730Z,100852.00
2023-02-21T04:56:27.906Z,100858.72
2023-02-21T04:58:55.602Z,100859.03
2023-02-21T05:01:23.299Z,100853.03
2023-02-21T05:03:50.364Z,100844.53
2023-02-21T05:06:22.466Z,100852.47
2023-02-21T05:08:50.067Z,100841.97
2023-02-21T05:11:18.378Z,100848.56
2023-02-21T05:13:46.178Z,100852.47
2023-02-21T05:16:13.985Z,100849.09
2023-02-21T05:18:46.619Z,100845.16
2023-02-21T05:21:16.405Z,100843.16
2023-02-21T05:23:56.225Z,100854.81
2023-02-21T05:26:27.907Z,100857.66
2023-02-21T05:28:54.879Z,100855.97
2023-02-21T05:31:21.955Z,100857.66
2023-02-21T05:33:49.284Z,100856.19
2023-02-21T05:36:17.926Z,100847.22
2023-02-21T05:38:50.485Z,100854.00
2023-02-21T05:41:18.404Z,100845.91
2023-02-21T05:43:47.278Z,100852.69
2023-02-21T05:46:25.037Z,100845.59
2023-02-21T05:48:52.373Z,100846.59
2023-02-21T05:51:20.014Z,100837.16
2023-02-21T05:53:47.603Z,100833.22
2023-02-21T05:56:14.607Z,100840.34
2023-02-21T05:58:41.461Z,100833.06
2023-02-21T06:01:08.487Z,100835.63
2023-02-21T06:03:35.372Z,100832.50
2023-02-21T06:06:02.252Z,100838.59
2023-02-21T06:08:29.537Z,100836.03
2023-02-21T06:10:56.385Z,100830.63
2023-02-21T06:13:23.298Z,100821.81
2023-02-21T06:15:50.275Z,100825.22
2023-02-21T06:18:17.931Z,100820.16
2023-02-21T06:20:45.221Z,100821.28
2023-02-21T06:23:12.137Z,100828.50
2023-02-21T06:25:38.985Z,100821.09
2023-02-21T06:28:06.028Z,100824.78
2023-02-21T06:30:32.865Z,100824.94
2023-02-21T06:32:59.847Z,100823.16
2023-02-21T06:35:26.798Z,100820.31
2023-02-21T06:37:53.709Z,100820.94
2023-02-21T06:40:20.557Z,100819.78
2023-02-21T06:42:47.797Z,100824.97
2023-02-21T06:45:14.739Z,100818.72
2023-02-21T06:47:41.633Z,100817.53
2023-02-21T06:50:10.335Z,100816.84
2023-02-21T06:52:37.307Z,100816.16
2023-02-21T06:55:04.694Z,100816.78
2023-02-21T06:57:31.494Z,100810.44
2023-02-21T06:59:58.428Z,100816.16
2023-02-21T07:02:25.308Z,100803.34
2023-02-21T07:04:52.327Z,100797.41
2023-02-21T07:07:19.462Z,100805.66
2023-02-21T07:09:46.322Z,100807.13
2023-02-21T07:12:13.185Z,100810.56
2023-02-21T07:14:40.371Z,100805.88
2023-02-21T07:17:07.212Z,100803.16
2023-02-21T07:19:33.985Z,100810.56
2023-02-21T07:22:00.836Z,100803.50
2023-02-21T07:24:27.666Z,100797.53
2023-02-21T07:26:55.418Z,100800.53
2023-02-21T07:29:22.286Z,100794.66
2023-02-21T07:31:49.225Z,100805.47
2023-02-21T07:34:16.914Z,100798.69
2023-02-21T07:36:44.537Z,100801.94
2023-02-21T07:39:11.742Z,100798.09
2023-02-21T07:41:38.614Z,100802.63
2023-02-21T07:44:05.777Z,100802.06
2023-02-21T07:46:32.980Z,100795.69
2023-02-21T07:48:59.781Z,100802.56
2023-02-21T07:51:31.203Z,100805.66
2023-02-21T07:53:58.209Z,100812.22
2023-02-21T07:56:24.980Z,100799.97
2023-02-21T07:58:51.800Z,100799.97
2023-02-21T08:01:22.977Z,100802.50
2023-02-21T08:03:49.890Z,100805.34
2023-02-21T08:06:18.336Z,100804.53
2023-02-21T08:08:45.916Z,100806.75
2023-02-21T08:11:13.619Z,100807.97
2023-02-21T08:13:40.693Z,100807.13
2023-02-21T08:16:07.794Z,100807.28
2023-02-21T08:18:34.645Z,100809.66
2023-02-21T08:21:01.523Z,100809.97
2023-02-21T08:23:28.833Z,100807.13
2023-02-21T08:25:55.825Z,100814.06
2023-02-21T08:28:22.623Z,100817.06
2023-02-21T08:30:49.505Z,100811.06
2023-02-21T08:33:16.297Z,100812.19
2023-02-21T08:35:43.575Z,100811.41
2023-02-21T08:38:11.006Z,100813.59
2023-02-21T08:40:37.853Z,100817.44
2023-02-21T08:43:05.971Z,100821.69
2023-02-21T08:45:33.293Z,100822.72
2023-02-21T08:48:00.168Z,100818.00
2023-02-21T08:50:28.928Z,100815.59
2023-02-21T08:52:56.929Z,100814.13
2023-02-21T08:55:24.035Z,100824.16
2023-02-21T08:57:53.769Z,100813.03
2023-02-21T09:00:24.192Z,100812.34
2023-02-21T09:02:52.490Z,100814.75
2023-02-21T09:05:24.834Z,100807.31
2023-02-21T09:07:55.271Z,100818.31
2023-02-21T09:10:22.269Z,100814.78
2023-02-21T09:12:49.253Z,100807.84
2023-02-21T09:15:17.051Z,100809.22
2023-02-21T09:17:44.956Z,100810.06
2023-02-21T09:20:17.243Z,100814.28
2023-02-21T09:22:45.673Z,100812.13
2023-02-21T09:25:13.817Z,100803.88
2023-02-21T09:27:41.514Z,100807.94
2023-02-21T09:30:16.995Z,100810.13
2023-02-21T09:32:43.920Z,100805.31
2023-02-21T09:35:14.083Z,100813.34
2023-02-21T09:37:42.736Z,100800.59
2023-02-21T09:40:37.491Z,100802.75
2023-02-21T09:43:09.675Z,100798.94
2023-02-21T09:45:37.984Z,100798.28
2023-02-21T09:48:19.282Z,100799.66
2023-02-21T09:50:54.360Z,100793.75
2023-02-21T09:53:26.672Z,100797.47
2023-02-21T09:56:00.789Z,100790.72
2023-02-21T09:58:27.670Z,100786.38
2023-02-21T10:01:01.331Z,100787.09
2023-02-21T10:04:05.113Z,100783.53
2023-02-21T10:07:07.282Z,100776.81
2023-02-21T10:10:08.200Z,100778.34
2023-02-21T10:13:03.951Z,100773.59
2023-02-21T10:16:05.631Z,100774.13
2023-02-21T10:18:45.290Z,100774.66
2023-02-21T10:21:23.333Z,100776.38
2023-02-21T10:23:54.644Z,100777.00
2023-02-21T10:26:28.164Z,100769.25
2023-02-21T10:28:57.049Z,100779.28
2023-02-21T10:31:26.789Z,100776.75
2023-02-21T10:33:53.722Z,100769.81
2023-02-21T10:36:23.500Z,100779.81
2023-02-21T10:39:07.646Z,100773.75
2023-02-21T10:41:39.628Z,100780.69
2023-02-21T10:44:15.929Z,100777.16
2023-02-21T10:47:00.861Z,100774.63
2023-02-21T10:49:39.848Z,100774.59
2023-02-21T10:52:13.967Z,100779.19
2023-02-21T10:54:41.254Z,100770.16
2023-02-21T10:57:12.189Z,100779.13
2023-02-21T10:59:43.165Z,100763.53
2023-02-21T11:02:50.249Z,100764.38
2023-02-21T11:05:22.335Z,100763.66
2023-02-21T11:08:02.694Z,100761.78
2023-02-21T11:10:42.792Z,100759.56
2023-02-21T11:13:21.705Z,100753.28
2023-02-21T11:15:49.858Z,100754.31
2023-02-21T11:18:24.853Z,100747.84
2023-02-21T11:20:53.986Z,100750.81
2023-02-21T11:23:30.701Z,100744.72
2023-02-21T11:26:16.602Z,100744.69
2023-02-21T11:28:45.144Z,100738.91
2023-02-21T11:31:23.931Z,100738.84
2023-02-21T11:34:00.982Z,100739.84
2023-02-21T11:36:36.729Z,100731.16
2023-02-21T11:39:07.704Z,100725.72
2023-02-21T11:41:50.896Z,100721.81
2023-02-21T11:44:41.153Z,100717.41
2023-02-21T11:47:40.040Z,100718.06
2023-02-21T11:50:12.821Z,100716.00
2023-02-21T11:52:49.739Z,100720.75
2023-02-21T11:55:21.896Z,100710.19
2023-02-21T11:58:06.657Z,100713.03
2023-02-21T12:01:13.580Z,100700.97
2023-02-21T12:04:30.363Z,100691.78
2023-02-21T12:07:18.371Z,100685.66
2023-02-21T12:10:02.459Z,100685.63
2023-02-21T12:12:54.788Z,100694.63
2023-02-21T12:16:01.193Z,100674.38
2023-02-21T12:18:50.975Z,100679.78
2023-02-21T12:21:41.711Z,100666.38
2023-02-21T12:24:49.405Z,100667.78
2023-02-21T12:27:25.732Z,100665.53
2023-02-21T12:30:03.756Z,100673.56
2023-02-21T12:33:08.152Z,100667.84
2023-02-21T12:36:13.972Z,100664.41
2023-02-21T12:39:12.197Z,100665.31
2023-02-21T12:41:50.244Z,100645.22
2023-02-21T12:44:27.213Z,100645.31
2023-02-21T12:47:22.017Z,100646.88
2023-02-21T12:50:02.111Z,100637.34
2023-02-21T12:53:05.755Z,100631.72
2023-02-21T12:56:09.326Z,100620.78
2023-02-21T12:58:48.625Z,100613.53
2023-02-21T13:01:32.387Z,100611.59
2023-02-21T13:04:14.459Z,100609.75
2023-02-21T13:07:11.799Z,100605.78
2023-02-21T13:09:49.116Z,100603.03
2023-02-21T13:12:22.710Z,100604.13
2023-02-21T13:14:59.624Z,100593.75
2023-02-21T13:17:27.577Z,100584.94
2023-02-21T13:20:10.044Z,100589.69
2023-02-21T13:23:40.026Z,100585.84
2023-02-21T13:26:43.609Z,100587.91
2023-02-21T13:29:37.468Z,100575.88
2023-02-21T13:32:11.860Z,100574.97
2023-02-21T13:34:47.457Z,100565.03
2023-02-21T13:37:20.528Z,100567.94
2023-02-21T13:40:01.548Z,100563.53
2023-02-21T13:42:30.413Z,100557.53
2023-02-21T13:45:21.718Z,100549.09
2023-02-21T13:47:58.311Z,100553.78
2023-02-21T13:50:42.025Z,100545.47
2023-02-21T13:53:08.833Z,100540.09
2023-02-21T13:55:37.562Z,100536.56
2023-02-21T13:58:05.479Z,100524.09
2023-02-21T14:00:32.312Z,100524.38
2023-02-21T14:03:25.284Z,100518.75
2023-02-21T14:05:52.609Z,100508.72
2023-02-21T14:08:33.708Z,100510.41
2023-02-21T14:11:07.062Z,100511.06
2023-02-21T14:13:54.505Z,100502.63
2023-02-21T14:16:47.083Z,100501.41
2023-02-21T14:19:26.495Z,100497.31
2023-02-21T14:22:29.235Z,100494.94
2023-02-21T14:25:16.350Z,100499.25
2023-02-21T14:27:43.421Z,100492.78
2023-02-21T14:30:13.299Z,100485.00
2023-02-21T14:32:56.649Z,100484.25
2023-02-21T14:35:34.529Z,100486.41
2023-02-21T14:38:21.808Z,100477.41
2023-02-21T14:41:09.262Z,100473.97
2023-02-21T14:44:22.634Z,100472.56
2023-02-21T14:47:05.758Z,100468.25
2023-02-21T14:49:54.609Z,100463.84
2023-02-21T14:52:52.094Z,100460.00
2023-02-21T14:56:28.462Z,100463.66
2023-02-21T14:59:27.233Z,100456.97
2023-02-21T15:02:42.678Z,100452.56
2023-02-21T15:05:26.590Z,100456.38
2023-02-21T15:08:06.405Z,100439.06
2023-02-21T15:10:42.353Z,100438.78
2023-02-21T15:13:25.453Z,100445.97
2023-02-21T15:16:08.211Z,100445.03
2023-02-21T15:19:00.559Z,100436.97
2023-02-21T15:21:28.403Z,100435.66
2023-02-21T15:24:13.241Z,100438.38
2023-02-21T15:26:40.321Z,100435.34
2023-02-21T15:29:12.376Z,100428.16
2023-02-21T15:31:49.269Z,100431.53
2023-02-21T15:34:20.721Z,100426.84
2023-02-21T15:36:55.536Z,100427.19
2023-02-21T15:39:33.673Z,100414.03
2023-02-21T15:42:05.571Z,100419.16
2023-02-21T15:44:40.730Z,100412.75
2023-02-21T15:47:22.770Z,100415.72
2023-02-21T15:50:12.055Z,100417.00
2023-02-21T15:52:40.527Z,100418.28
2023-02-21T15:55:19.806Z,100417.41
2023-02-21T15:57:57.616Z,100416.75
2023-02-21T16:00:43.394Z,100417.00
2023-02-21T16:03:41.086Z,100423.63
2023-02-21T16:06:32.495Z,100413.16
2023-02-21T16:09:08.015Z,100407.53
2023-02-21T16:12:06.267Z,100403.69
2023-02-21T16:14:45.290Z,100407.13
2023-02-21T16:17:25.119Z,100411.31
2023-02-21T16:19:57.221Z,100400.56
2023-02-21T16:22:28.542Z,100404.59
2023-02-21T16:25:10.646Z,100404.72
2023-02-21T16:27:49.830Z,100404.44
2023-02-21T16:30:23.070Z,100401.94
2023-02-21T16:32:52.884Z,100403.84
2023-02-21T16:35:25.225Z,100404.50
2023-02-21T16:37:56.669Z,100400.63
2023-02-21T16:40:31.091Z,100399.97
2023-02-21T16:42:59.219Z,100400.31
2023-02-21T16:45:26.022Z,100396.25
2023-02-21T16:48:07.326Z,100394.75
2023-02-21T16:50:36.572Z,100397.63
2023-02-21T16:53:03.937Z,100396.44
2023-02-21T16:55:31.697Z,100393.22
2023-02-21T16:58:03.458Z,100390.22
2023-02-21T17:00:31.816Z,100393.47
2023-02-21T17:02:58.787Z,100391.25
2023-02-21T17:05:26.621Z,100393.13
2023-02-21T17:07:55.449Z,100382.31
2023-02-21T17:10:23.342Z,100387.03
2023-02-21T17:12:50.214Z,100380.09
2023-02-21T17:15:17.505Z,100381.50
2023-02-21T17:17:52.750Z,100377.44
2023-02-21T17:20:22.124Z,100381.63
2023-02-21T17:22:49.652Z,100375.59
2023-02-21T17:25:18.299Z,100377.09
2023-02-21T17:27:46.008Z,100375.09
2023-02-21T17:30:13.915Z,100383.53
2023-02-21T17:32:40.775Z,100369.50
2023-02-21T17:35:08.470Z,100376.28
2023-02-21T17:37:35.349Z,100371.03
2023-02-21T17:40:03.011Z,100369.69
2023-02-21T17:42:29.796Z,100379.19
2023-02-21T17:44:57.995Z,100375.97
2023-02-21T17:47:24.906Z,100376.81
2023-02-21T17:49:54.906Z,100372.44
2023-02-21T17:52:22.343Z,100373.78
2023-02-21T17:54:49.224Z,100367.88
2023-02-21T17:57:16.677Z,100363.34
2023-02-21T17:59:44.561Z,100368.53
2023-02-21T18:02:11.926Z,100369.38
2023-02-21T18:04:39.451Z,100363.63
2023-02-21T18:07:07.240Z,100366.19
2023-02-21T18:09:34.245Z,100370.38
2023-02-21T18:12:01.403Z,100374.09
2023-02-21T18:14:30.590Z,100369.97
2023-02-21T18:16:58.330Z,100367.59
2023-02-21T18:19:25.370Z,100366.06
2023-02-21T18:21:52.262Z,100359.66
2023-02-21T18:24:19.530Z,100362.50
2023-02-21T18:26:46.834Z,100357.78
2023-02-21T18:29:14.008Z,100358.09
2023-02-21T18:31:40.929Z,100367.47
2023-02-21T18:34:07.814Z,100359.75
2023-02-21T18:36:35.628Z,100368.88
2023-02-21T18:39:02.882Z,100365.31
2023-02-21T18:41:29.734Z,100364.47
2023-02-21T18:43:56.828Z,100359.38
2023-02-21T18:46:24.306Z,100354.84
2023-02-21T18:48:51.721Z,100361.25
2023-02-21T18:51:20.459Z,100347.91
2023-02-21T18:53:49.051Z,100357.56
2023-02-21T18:56:22.025Z,100357.72
2023-02-21T18:58:49.832Z,100352.97
2023-02-21T19:01:20.924Z,100345.88
2023-02-21T19:03:51.367Z,100348.72
2023-02-21T19:06:21.371Z,100347.88
2023-02-21T19:08:50.622Z,100347.88
2023-02-21T19:11:18.340Z,100355.69
2023-02-21T19:13:50.514Z,100353.06
2023-02-21T19:16:19.917Z,100356.34
2023-02-21T19:18:47.476Z,100347.91
2023-02-21T19:21:15.019Z,100345.88
2023-02-21T19:23:42.482Z,100349.59
2023-02-21T19:26:09.523Z,100346.19
2023-02-21T19:28:38.709Z,100339.28
2023-02-21T19:31:05.692Z,100345.34
2023-02-21T19:33:32.538Z,100336.56
2023-02-21T19:36:01.754Z,100333.72
2023-02-21T19:38:28.609Z,100337.41
2023-02-21T19:40:55.435Z,100338.56
2023-02-21T19:43:22.588Z,100341.50
2023-02-21T19:45:49.469Z,100346.91
2023-02-21T19:48:16.339Z,100345.03
2023-02-21T19:50:43.184Z,100342.19
2023-02-21T19:53:09.970Z,100342.19
2023-02-21T19:55:37.164Z,100338.06
2023-02-21T19:58:09.026Z,100338.47
2023-02-21T20:00:39.026Z,100333.41
2023-02-21T20:03:08.380Z,100337.09
2023-02-21T20:05:37.215Z,100324.19
2023-02-21T20:08:07.014Z,100319.19
2023-02-21T20:10:35.101Z,100314.09
2023-02-21T20:13:07.244Z,100309.72
2023-02-21T20:15:37.969Z,100299.59
2023-02-21T20:18:07.041Z,100297.22
2023-02-21T20:20:34.981Z,100304.59
2023-02-21T20:23:03.648Z,100297.34
2023-02-21T20:25:30.770Z,100294.44
2023-02-21T20:27:57.861Z,100301.53
2023-02-21T20:30:25.116Z,100304.38
2023-02-21T20:32:52.567Z,100303.19
2023-02-21T20:35:20.770Z,100303.88
2023-02-21T20:37:47.606Z,100300.88
2023-02-21T20:40:16.112Z,100307.09
2023-02-21T20:42:43.491Z,100302.25
2023-02-21T20:45:11.100Z,100300.22
2023-02-21T20:47:38.993Z,100297.06
2023-02-21T20:50:07.640Z,100294.19
2023-02-21T20:52:39.807Z,100288.81
2023-02-21T20:55:09.665Z,100296.41
2023-02-21T20:57:37.873Z,100292.13
2023-02-21T21:00:09.408Z,100285.09
2023-02-21T21:02:37.097Z,100288.81
2023-02-21T21:05:09.351Z,100289.13
2023-02-21T21:07:36.471Z,100283.94
2023-02-21T21:10:03.606Z,100282.75
2023-02-21T21:12:30.561Z,100287.47
2023-02-21T21:14:57.585Z,100280.56
2023-02-21T21:17:25.090Z,100283.09
2023-02-21T21:19:53.534Z,100282.91
2023-02-21T21:22:24.591Z,100278.41
2023-02-21T21:24:52.789Z,100279.53
2023-02-21T21:27:21.766Z,100273.31
2023-02-21T21:29:49.534Z,100261.34
2023-02-21T21:32:23.376Z,100266.25
2023-02-21T21:34:57.158Z,100260.50
2023-02-21T21:37:29.881Z,100256.44
2023-02-21T21:39:57.312Z,100251.88
2023-02-21T21:42:29.438Z,100251.25
2023-02-21T21:44:57.532Z,100250.06
2023-02-21T21:47:28.200Z,100242.63
2023-02-21T21:49:55.499Z,100238.56
2023-02-21T21:52:26.452Z,100231.50
2023-02-21T21:54:53.594Z,100225.06
2023-02-21T21:57:22.863Z,100229.31
2023-02-21T21:59:50.826Z,100229.25
2023-02-21T22:02:18.068Z,100221.53
2023-02-21T22:04:45.817Z,100222.03
2023-02-21T22:07:13.331Z,100213.06
2023-02-21T22:09:40.630Z,100222.38
2023-02-21T22:12:08.871Z,100217.78
2023-02-21T22:14:36.315Z,100214.09
2023-02-21T22:17:05.568Z,100209.91
2023-02-21T22:19:34.882Z,100204.81
2023-02-21T22:22:08.512Z,100207.88
2023-02-21T22:24:35.511Z,100210.56
2023-02-21T22:27:02.898Z,100210.22
2023-02-21T22:29:29.758Z,100200.25
2023-02-21T22:31:56.616Z,100201.97
2023-02-21T22:34:23.564Z,100190.31
2023-02-21T22:36:56.447Z,100187.59
2023-02-21T22:39:25.306Z,100190.66
2023-02-21T22:41:52.679Z,100189.63
2023-02-21T22:44:19.829Z,100193.31
2023-02-21T22:46:58.776Z,100189.94
2023-02-21T22:49:27.782Z,100189.63
2023-02-21T22:51:55.208Z,100195.31
2023-02-21T22:54:22.058Z,100187.91
2023-02-21T22:56:52.256Z,100187.91
2023-02-21T22:59:21.500Z,100185.22
2023-02-21T23:01:48.302Z,100185.22
2023-02-21T23:04:26.113Z,100186.75
2023-02-21T23:06:59.154Z,100179.81
2023-02-21T23:09:29.070Z,100186.75
2023-02-21T23:11:59.881Z,100191.94
2023-02-21T23:14:31.741Z,100182.50
2023-02-21T23:16:59.449Z,100176.59
2023-02-21T23:19:29.295Z,100174.25
2023-02-21T23:21:58.257Z,100177.28
2023-02-21T23:24:25.364Z,100183.69
2023-02-21T23:26:54.962Z,100174.94
2023-02-21T23:29:26.975Z,100171.88
2023-02-21T23:32:09.727Z,100172.41
2023-02-21T23:34:40.825Z,100171.56
2023-02-21T23:37:09.594Z,100169.03
2023-02-21T23:39:36.569Z,100165.13
2023-02-21T23:42:04.001Z,100156.03
2023-02-21T23:44:36.298Z,100152.53
2023-02-21T23:47:06.184Z,100153.88
2023-02-21T23:49:33.066Z,100152.84
2023-02-21T23:52:01.804Z,100148.47
2023-02-21T23:54:29.013Z,100146.09
2023-02-21T23:57:00.834Z,100155.69
2023-02-21T23:59:28.734Z,100158.75
